CheckWX is a tool to help pilots better visualize weather data.  It is not intended as a substitute for an official pre-flight weather briefing.

18:31:19 UTC

KMSN TAF
Dane County Regional-Truax Field Airport
Madison, Wisconsin, USA
KMSN 221720Z 2218/2318 12007KT P6SM SKC FM230000 10007KT P6SM BKN100 FM230900 09008KT P6SM OVC050 FM231300 09010KT 5SM FZRA BR OVC023 FM231500 09012KT 1SM FZRA BR OVC008 FM231600 09013G18KT 2SM RA BR OVC005

Feb-22@
18:00 UTC

Feb-22 @ 18:00 UTC

Feb-23@
00:00 UTC

Feb-23 @ 00:00 UTC

KMSN 221720Z 2218/2318 12007KT P6SM SKC
Wind
  • 120° at 7 KTS
Cloud Levels
  • Clear skies

Feb-23@
00:00 UTC

Feb-23 @ 00:00 UTC

Feb-23@
09:00 UTC

Feb-23 @ 09:00 UTC

FM230000 10007KT P6SM BKN100

From

FromStandard forecast or significant change

Wind
  • 100° at 7 KTS
Cloud Levels
  • Broken at 10,000' AGL

Feb-23@
09:00 UTC

Feb-23 @ 09:00 UTC

Feb-23@
13:00 UTC

Feb-23 @ 13:00 UTC

FM230900 09008KT P6SM OVC050

From

FromStandard forecast or significant change

Wind
  • 090° at 8 KTS
Cloud Levels
  • Overcast at 5,000' AGL

Feb-23@
13:00 UTC

Feb-23 @ 13:00 UTC

Feb-23@
15:00 UTC

Feb-23 @ 15:00 UTC

FM231300 09010KT 5SM FZRA BR OVC023

From

FromStandard forecast or significant change

Wind
  • 090° at 10 KTS
Conditions
Freezing Rain, Mist
Cloud Levels
  • Overcast at 2,300' AGL

Feb-23@
15:00 UTC

Feb-23 @ 15:00 UTC

Feb-23@
16:00 UTC

Feb-23 @ 16:00 UTC

FM231500 09012KT 1SM FZRA BR OVC008

From

FromStandard forecast or significant change

Wind
  • 090° at 12 KTS
Conditions
Freezing Rain, Mist
Cloud Levels
  • Overcast at 800' AGL

Feb-23@
16:00 UTC

Feb-23 @ 16:00 UTC

Feb-23@
18:00 UTC

Feb-23 @ 18:00 UTC

FM231600 09013G18KT 2SM RA BR OVC005

From

FromStandard forecast or significant change

Wind
  • 090° at 13 KTS
  • {Gusting to 18 KTS
Conditions
Rain, Mist
Cloud Levels
  • Overcast at 500' AGL